createdAt,value
2019-01-21T00:01:51.365Z,101181.56
2019-01-21T00:03:58.858Z,101179.01
2019-01-21T00:06:06.257Z,101185.44
2019-01-21T00:08:13.655Z,101181.66
2019-01-21T00:10:21.034Z,101180.36
2019-01-21T00:12:28.826Z,101180.36
2019-01-21T00:14:36.229Z,101191.52
2019-01-21T00:16:43.298Z,101194.97
2019-01-21T00:18:50.863Z,101188.51
2019-01-21T00:20:58.254Z,101188.14
2019-01-21T00:23:05.312Z,101189.45
2019-01-21T00:25:12.395Z,101189.86
2019-01-21T00:27:19.505Z,101191.64
2019-01-21T00:29:26.514Z,101192.50
2019-01-21T00:31:33.942Z,101185.18
2019-01-21T00:33:41.324Z,101195.08
2019-01-21T00:35:48.360Z,101195.91
2019-01-21T00:37:55.413Z,101189.86
2019-01-21T00:40:02.443Z,101197.20
2019-01-21T00:42:09.503Z,101198.89
2019-01-21T00:44:16.720Z,101202.84
2019-01-21T00:46:24.143Z,101201.95
2019-01-21T00:48:31.611Z,101205.41
2019-01-21T00:50:39.255Z,101206.71
2019-01-21T00:52:46.289Z,101197.27
2019-01-21T00:54:53.327Z,101200.65
2019-01-21T00:57:00.413Z,101198.93
2019-01-21T00:59:07.458Z,101195.91
2019-01-21T01:01:14.524Z,101197.20
2019-01-21T01:03:21.696Z,101195.11
2019-01-21T01:05:28.737Z,101193.30
2019-01-21T01:07:35.856Z,101210.98
2019-01-21T01:09:43.139Z,101209.23
2019-01-21T01:11:50.067Z,101205.41
2019-01-21T01:13:57.111Z,101219.13
2019-01-21T01:16:04.241Z,101216.92
2019-01-21T01:18:11.233Z,101208.80
2019-01-21T01:20:21.101Z,101213.20
2019-01-21T01:22:28.238Z,101211.94
2019-01-21T01:24:35.218Z,101204.16
2019-01-21T01:26:42.295Z,101204.13
2019-01-21T01:28:49.371Z,101202.92
2019-01-21T01:30:56.672Z,101203.23
2019-01-21T01:33:03.917Z,101198.53
2019-01-21T01:35:12.236Z,101196.86
2019-01-21T01:37:19.609Z,101202.03
2019-01-21T01:39:27.040Z,101196.37
2019-01-21T01:41:34.051Z,101196.80
2019-01-21T01:43:41.533Z,101200.71
2019-01-21T01:45:48.843Z,101189.95
2019-01-21T01:48:07.404Z,101191.70
2019-01-21T01:50:14.459Z,101192.98
2019-01-21T01:52:21.977Z,101195.14
2019-01-21T01:54:29.019Z,101195.55
2019-01-21T01:56:36.324Z,101184.32
2019-01-21T01:58:43.681Z,101187.73
2019-01-21T02:00:50.929Z,101187.34
2019-01-21T02:02:57.925Z,101190.34
2019-01-21T02:05:04.999Z,101191.27
2019-01-21T02:07:12.115Z,101200.34
2019-01-21T02:09:19.608Z,101210.61
2019-01-21T02:11:26.908Z,101214.89
2019-01-21T02:13:34.819Z,101214.95
2019-01-21T02:15:41.861Z,101217.13
2019-01-21T02:17:52.227Z,101216.33
2019-01-21T02:19:58.802Z,101210.67
2019-01-21T02:22:06.136Z,101206.86
2019-01-21T02:24:14.200Z,101205.12
2019-01-21T02:26:27.121Z,101198.67
2019-01-21T02:29:27.328Z,101196.12
2019-01-21T02:32:39.472Z,101198.64
2019-01-21T02:35:36.894Z,101207.63
2019-01-21T02:38:56.566Z,101209.03
2019-01-21T02:41:40.616Z,101208.17
2019-01-21T02:44:33.853Z,101213.28
2019-01-21T02:47:48.909Z,101211.59
2019-01-21T02:51:17.023Z,101218.48
2019-01-21T02:54:10.571Z,101217.64
2019-01-21T02:57:25.870Z,101214.64
2019-01-21T03:00:32.865Z,101215.95
2019-01-21T03:03:28.774Z,101206.08
2019-01-21T03:06:34.334Z,101200.45
2019-01-21T03:09:35.982Z,101196.20
2019-01-21T03:12:39.338Z,101206.05
2019-01-21T03:15:39.871Z,101209.55
2019-01-21T03:19:03.633Z,101214.27
2019-01-21T03:22:14.404Z,101217.27
2019-01-21T03:25:33.843Z,101212.08
2019-01-21T03:29:06.016Z,101212.56
2019-01-21T03:35:18.885Z,101216.93
2019-01-21T03:38:10.126Z,101213.86
2019-01-21T03:41:09.957Z,101212.56
2019-01-21T03:44:20.825Z,101219.05
2019-01-21T03:47:18.797Z,101215.23
2019-01-21T03:50:18.987Z,101220.40
2019-01-21T03:53:05.035Z,101219.97
2019-01-21T03:55:16.309Z,101221.32
2019-01-21T03:58:29.491Z,101224.30
2019-01-21T04:00:58.717Z,101232.08
2019-01-21T04:04:02.277Z,101225.62
2019-01-21T04:07:29.422Z,101226.05
2019-01-21T04:11:06.720Z,101235.94
2019-01-21T04:14:15.576Z,101225.62
2019-01-21T04:17:13.474Z,101235.16
2019-01-21T04:19:39.345Z,101229.94
2019-01-21T04:22:37.599Z,101237.69
2019-01-21T04:25:44.457Z,101223.45
2019-01-21T04:28:50.949Z,101226.48
2019-01-21T04:31:52.069Z,101229.99
2019-01-21T04:35:01.543Z,101229.91
2019-01-21T04:38:20.469Z,101229.50
2019-01-21T04:41:43.165Z,101233.41
2019-01-21T04:44:29.958Z,101230.82
2019-01-21T04:47:48.915Z,101238.61
2019-01-21T04:50:39.659Z,101233.84
2019-01-21T04:53:18.176Z,101239.00
2019-01-21T04:56:27.348Z,101237.72
2019-01-21T04:59:24.624Z,101235.96
2019-01-21T05:02:11.855Z,101242.02
2019-01-21T05:04:56.829Z,101240.30
2019-01-21T05:08:11.004Z,101238.58
2019-01-21T05:11:07.922Z,101233.37
2019-01-21T05:13:56.027Z,101223.92
2019-01-21T05:16:39.850Z,101243.77
2019-01-21T05:19:34.889Z,101245.95
2019-01-21T05:22:25.135Z,101247.25
2019-01-21T05:25:15.666Z,101239.87
2019-01-21T05:28:17.133Z,101237.37
2019-01-21T05:31:16.956Z,101239.92
2019-01-21T05:34:08.456Z,101241.27
2019-01-21T05:36:52.807Z,101249.43
2019-01-21T05:39:51.110Z,101244.69
2019-01-21T05:42:43.178Z,101249.00
2019-01-21T05:45:42.495Z,101252.84
2019-01-21T05:48:53.041Z,101252.84
2019-01-21T05:51:50.909Z,101245.15
2019-01-21T05:54:47.308Z,101250.31
2019-01-21T05:58:14.827Z,101258.02
2019-01-21T06:01:06.733Z,101251.20
2019-01-21T06:03:43.326Z,101255.48
2019-01-21T06:07:20.942Z,101249.92
2019-01-21T06:10:27.170Z,101250.34
2019-01-21T06:13:05.466Z,101257.23
2019-01-21T06:15:51.953Z,101252.93
2019-01-21T06:18:38.293Z,101257.30
2019-01-21T06:21:47.161Z,101253.39
2019-01-21T06:24:41.941Z,101255.11
2019-01-21T06:27:36.518Z,101246.92
2019-01-21T06:30:43.482Z,101236.98
2019-01-21T06:33:44.604Z,101248.19
2019-01-21T06:36:09.462Z,101253.79
2019-01-21T06:39:32.241Z,101247.33
2019-01-21T06:42:30.157Z,101234.00
2019-01-21T06:45:13.804Z,101255.13
2019-01-21T06:48:23.663Z,101263.27
2019-01-21T06:51:36.823Z,101253.42
2019-01-21T06:54:47.520Z,101281.05
2019-01-21T06:57:50.126Z,101270.67
2019-01-21T07:01:08.370Z,101274.16
2019-01-21T07:04:12.798Z,101280.98
2019-01-21T07:07:01.347Z,101286.24
2019-01-21T07:09:56.196Z,101293.08
2019-01-21T07:13:17.328Z,101289.63
2019-01-21T07:16:28.111Z,101302.59
2019-01-21T07:19:41.084Z,101297.87
2019-01-21T07:22:44.224Z,101285.36
2019-01-21T07:25:23.772Z,101291.41
2019-01-21T07:28:36.962Z,101294.00
2019-01-21T07:31:18.677Z,101303.08
2019-01-21T07:34:26.526Z,101298.39
2019-01-21T07:37:14.778Z,101310.06
2019-01-21T07:40:08.275Z,101303.59
2019-01-21T07:43:12.749Z,101318.22
2019-01-21T07:46:14.361Z,101312.19
2019-01-21T07:48:40.745Z,101319.91
2019-01-21T07:52:14.913Z,101318.24
2019-01-21T07:55:18.178Z,101322.58
2019-01-21T07:58:12.438Z,101321.72
2019-01-21T08:00:44.274Z,101324.30
2019-01-21T08:03:30.137Z,101319.62
2019-01-21T08:06:27.536Z,101326.03
2019-01-21T08:09:27.483Z,101321.31
2019-01-21T08:12:31.919Z,101327.41
2019-01-21T08:15:40.469Z,101331.28
2019-01-21T08:18:39.950Z,101338.21
2019-01-21T08:21:46.765Z,101338.16
2019-01-21T08:24:38.204Z,101335.16
2019-01-21T08:27:31.800Z,101340.77
2019-01-21T08:30:25.859Z,101340.73
2019-01-21T08:33:11.661Z,101338.55
2019-01-21T08:36:13.866Z,101339.05
2019-01-21T08:39:13.462Z,101330.88
2019-01-21T08:42:22.291Z,101329.56
2019-01-21T08:45:28.360Z,101330.02
2019-01-21T08:48:25.013Z,101334.73
2019-01-21T08:51:25.825Z,101339.85
2019-01-21T08:54:42.664Z,101346.72
2019-01-21T08:57:55.283Z,101351.48
2019-01-21T09:00:51.751Z,101352.75
2019-01-21T09:04:04.257Z,101359.24
2019-01-21T09:07:19.385Z,101347.55
2019-01-21T09:09:46.174Z,101350.16
2019-01-21T09:13:13.020Z,101355.36
2019-01-21T09:16:10.797Z,101356.20
2019-01-21T09:19:20.252Z,101353.61
2019-01-21T09:22:11.131Z,101353.19
2019-01-21T09:25:20.050Z,101351.88
2019-01-21T09:28:25.646Z,101355.77
2019-01-21T09:31:59.200Z,101354.47
2019-01-21T09:35:18.788Z,101348.44
2019-01-21T09:38:01.502Z,101354.47
2019-01-21T09:41:31.748Z,101355.42
2019-01-21T09:44:32.150Z,101355.45
2019-01-21T09:46:46.333Z,101360.62
2019-01-21T09:48:50.925Z,101352.86
2019-01-21T09:51:00.914Z,101352.84
2019-01-21T09:53:08.538Z,101363.67
2019-01-21T09:55:17.155Z,101366.28
2019-01-21T09:57:28.293Z,101361.48
2019-01-21T09:59:36.704Z,101364.07
2019-01-21T10:01:44.143Z,101358.09
2019-01-21T10:03:51.723Z,101360.73
2019-01-21T10:06:05.299Z,101356.86
2019-01-21T10:09:08.105Z,101356.45
2019-01-21T10:12:07.891Z,101361.22
2019-01-21T10:15:15.202Z,101364.21
2019-01-21T10:18:21.786Z,101359.06
2019-01-21T10:21:33.522Z,101361.60
2019-01-21T10:24:41.293Z,101370.16
2019-01-21T10:27:43.371Z,101368.84
2019-01-21T10:30:46.489Z,101371.77
2019-01-21T10:33:51.447Z,101367.89
2019-01-21T10:36:54.870Z,101364.07
2019-01-21T10:40:02.988Z,101367.15
2019-01-21T10:43:25.118Z,101370.22
2019-01-21T10:46:17.300Z,101361.60
2019-01-21T10:48:43.725Z,101366.83
2019-01-21T10:51:48.479Z,101369.36
2019-01-21T10:54:54.619Z,101364.67
2019-01-21T10:57:41.339Z,101362.09
2019-01-21T11:00:23.329Z,101360.41
2019-01-21T11:03:38.104Z,101361.36
2019-01-21T11:06:59.938Z,101358.23
2019-01-21T11:09:46.090Z,101356.05
2019-01-21T11:12:49.600Z,101345.19
2019-01-21T11:15:38.658Z,101352.92
2019-01-21T11:19:06.028Z,101353.73
2019-01-21T11:21:45.842Z,101347.27
2019-01-21T11:24:51.360Z,101341.28
2019-01-21T11:28:01.765Z,101341.31
2019-01-21T11:30:53.870Z,101337.89
2019-01-21T11:34:09.083Z,101339.13
2019-01-21T11:37:21.320Z,101336.95
2019-01-21T11:40:10.744Z,101338.29
2019-01-21T11:42:59.842Z,101330.94
2019-01-21T11:45:58.525Z,101326.97
2019-01-21T11:48:45.675Z,101336.00
2019-01-21T11:52:17.741Z,101329.94
2019-01-21T11:55:29.556Z,101337.12
2019-01-21T11:58:31.892Z,101338.38
2019-01-21T12:01:36.232Z,101328.02
2019-01-21T12:04:15.203Z,101336.72
2019-01-21T12:06:39.818Z,101331.06
2019-01-21T12:09:38.989Z,101333.16
2019-01-21T12:12:31.227Z,101339.64
2019-01-21T12:15:40.999Z,101334.47
2019-01-21T12:18:59.374Z,101332.26
2019-01-21T12:21:47.612Z,101330.45
2019-01-21T12:24:27.129Z,101329.95
2019-01-21T12:27:32.980Z,101324.47
2019-01-21T12:30:54.121Z,101321.86
2019-01-21T12:33:58.248Z,101317.58
2019-01-21T12:36:41.260Z,101318.84
2019-01-21T12:39:30.475Z,101319.67
2019-01-21T12:42:24.209Z,101313.73
2019-01-21T12:45:05.362Z,101315.48
2019-01-21T12:47:48.285Z,101316.78
2019-01-21T12:51:12.611Z,101309.37
2019-01-21T12:54:38.336Z,101307.19
2019-01-21T12:58:03.571Z,101315.28
2019-01-21T13:01:07.320Z,101314.05
2019-01-21T13:04:47.775Z,101311.41
2019-01-21T13:08:18.479Z,101316.57
2019-01-21T13:11:24.832Z,101311.25
2019-01-21T13:14:18.607Z,101312.63
2019-01-21T13:16:59.048Z,101315.25
2019-01-21T13:20:48.633Z,101314.78
2019-01-21T13:23:37.220Z,101325.09
2019-01-21T13:26:33.841Z,101325.45
2019-01-21T13:29:49.335Z,101325.83
2019-01-21T13:32:56.317Z,101322.75
2019-01-21T13:35:49.291Z,101321.92
2019-01-21T13:38:55.880Z,101317.61
2019-01-21T13:41:46.577Z,101314.13
2019-01-21T13:44:58.274Z,101307.64
2019-01-21T13:48:09.476Z,101303.89
2019-01-21T13:50:37.244Z,101315.13
2019-01-21T13:53:54.737Z,101304.73
2019-01-21T13:56:51.229Z,101305.09
2019-01-21T13:59:56.552Z,101301.25
2019-01-21T14:03:03.590Z,101294.70
2019-01-21T14:06:10.584Z,101294.30
2019-01-21T14:09:29.341Z,101294.36
2019-01-21T14:12:11.836Z,101290.94
2019-01-21T14:14:58.676Z,101298.73
2019-01-21T14:18:22.263Z,101290.02
2019-01-21T14:21:12.327Z,101289.66
2019-01-21T14:23:41.614Z,101289.31
2019-01-21T14:27:09.514Z,101293.59
2019-01-21T14:30:14.438Z,101287.09
2019-01-21T14:33:11.780Z,101288.42
2019-01-21T14:36:15.649Z,101296.14
2019-01-21T14:39:13.897Z,101288.77
2019-01-21T14:42:07.269Z,101283.16
2019-01-21T14:45:21.164Z,101287.95
2019-01-21T14:48:32.582Z,101296.94
2019-01-21T14:51:24.760Z,101282.73
2019-01-21T14:54:26.813Z,101278.89
2019-01-21T14:57:23.958Z,101285.31
2019-01-21T15:00:40.726Z,101284.91
2019-01-21T15:03:46.857Z,101286.67
2019-01-21T15:06:55.052Z,101281.53
2019-01-21T15:09:55.253Z,101269.41
2019-01-21T15:12:29.329Z,101275.88
2019-01-21T15:15:14.870Z,101278.88
2019-01-21T15:17:54.393Z,101281.07
2019-01-21T15:20:38.764Z,101267.34
2019-01-21T15:23:24.762Z,101276.36
2019-01-21T15:26:36.749Z,101272.09
2019-01-21T15:29:39.036Z,101273.00
2019-01-21T15:32:14.212Z,101268.70
2019-01-21T15:35:30.835Z,101266.98
2019-01-21T15:38:12.605Z,101266.03
2019-01-21T15:41:28.675Z,101257.38
2019-01-21T15:44:03.811Z,101250.03
2019-01-21T15:46:40.858Z,101249.14
2019-01-21T15:49:28.935Z,101243.45
2019-01-21T15:52:49.793Z,101247.61
2019-01-21T15:55:52.949Z,101249.77
2019-01-21T15:58:48.006Z,101262.27
2019-01-21T16:01:57.845Z,101262.12
2019-01-21T16:04:35.835Z,101255.33
2019-01-21T16:07:21.170Z,101255.06
2019-01-21T16:10:32.576Z,101243.77
2019-01-21T16:13:45.657Z,101243.97
2019-01-21T16:17:06.507Z,101248.52
2019-01-21T16:19:30.800Z,101246.52
2019-01-21T16:22:54.896Z,101236.49
2019-01-21T16:25:34.077Z,101241.66
2019-01-21T16:28:49.335Z,101244.93
2019-01-21T16:31:09.809Z,101246.22
2019-01-21T16:34:18.763Z,101246.69
2019-01-21T16:37:01.006Z,101244.61
2019-01-21T16:39:56.263Z,101240.56
2019-01-21T16:42:29.844Z,101239.30
2019-01-21T16:44:37.543Z,101242.84
2019-01-21T16:46:45.087Z,101240.27
2019-01-21T16:48:52.758Z,101238.98
2019-01-21T16:51:00.645Z,101231.13
2019-01-21T16:53:08.411Z,101235.07
2019-01-21T16:55:15.928Z,101230.20
2019-01-21T16:57:23.610Z,101236.33
2019-01-21T16:59:31.042Z,101245.43
2019-01-21T17:01:38.633Z,101246.79
2019-01-21T17:03:45.868Z,101255.33
2019-01-21T17:05:53.601Z,101254.90
2019-01-21T17:08:01.118Z,101252.64
2019-01-21T17:10:10.157Z,101258.34
2019-01-21T17:12:18.516Z,101257.84
2019-01-21T17:14:25.812Z,101251.89
2019-01-21T17:16:33.300Z,101254.93
2019-01-21T17:18:40.618Z,101258.80
2019-01-21T17:20:48.165Z,101260.09
2019-01-21T17:22:55.725Z,101255.83
2019-01-21T17:25:02.909Z,101254.10
2019-01-21T17:27:10.319Z,101254.10
2019-01-21T17:29:17.775Z,101259.34
2019-01-21T17:31:25.380Z,101258.01
2019-01-21T17:33:32.992Z,101261.95
2019-01-21T17:35:40.644Z,101259.83
2019-01-21T17:37:48.086Z,101248.08
2019-01-21T17:39:55.532Z,101248.14
2019-01-21T17:42:03.043Z,101266.12
2019-01-21T17:44:10.619Z,101263.90
2019-01-21T17:46:18.539Z,101265.69
2019-01-21T17:48:26.013Z,101268.27
2019-01-21T17:50:33.592Z,101262.58
2019-01-21T17:52:41.166Z,101265.19
2019-01-21T17:54:48.392Z,101269.56
2019-01-21T17:56:55.809Z,101265.98
2019-01-21T17:59:03.412Z,101261.38
2019-01-21T18:01:10.910Z,101257.55
2019-01-21T18:03:19.353Z,101258.30
2019-01-21T18:05:26.736Z,101252.38
2019-01-21T18:07:34.266Z,101254.14
2019-01-21T18:09:42.021Z,101251.06
2019-01-21T18:11:49.408Z,101254.07
2019-01-21T18:13:57.325Z,101248.14
2019-01-21T18:16:04.939Z,101245.13
2019-01-21T18:18:12.472Z,101246.82
2019-01-21T18:20:26.011Z,101252.45
2019-01-21T18:22:34.739Z,101242.98
2019-01-21T18:24:42.319Z,101238.61
2019-01-21T18:26:49.747Z,101240.00
2019-01-21T18:28:57.550Z,101246.45
2019-01-21T18:31:05.197Z,101236.06
2019-01-21T18:33:12.674Z,101239.41
2019-01-21T18:35:20.268Z,101239.14
2019-01-21T18:37:27.997Z,101235.30
2019-01-21T18:39:35.687Z,101240.09
2019-01-21T18:41:43.317Z,101239.17
2019-01-21T18:43:50.912Z,101235.73
2019-01-21T18:45:58.626Z,101237.81
2019-01-21T18:48:06.325Z,101240.96
2019-01-21T18:50:13.974Z,101235.17
2019-01-21T18:52:22.308Z,101240.40
2019-01-21T18:54:29.805Z,101236.49
2019-01-21T18:56:37.529Z,101237.75
2019-01-21T18:58:45.217Z,101235.90
2019-01-21T19:00:53.372Z,101240.66
2019-01-21T19:03:00.796Z,101236.30
2019-01-21T19:05:14.436Z,101237.58
2019-01-21T19:07:21.985Z,101232.42
2019-01-21T19:09:29.816Z,101235.33
2019-01-21T19:11:37.857Z,101240.03
2019-01-21T19:13:45.674Z,101236.05
2019-01-21T19:15:54.233Z,101242.61
2019-01-21T19:18:02.369Z,101241.75
2019-01-21T19:20:11.960Z,101239.23
2019-01-21T19:22:19.625Z,101235.76
2019-01-21T19:24:27.367Z,101222.39
2019-01-21T19:26:35.314Z,101228.08
2019-01-21T19:28:43.115Z,101228.81
2019-01-21T19:30:50.570Z,101236.75
2019-01-21T19:32:58.447Z,101231.48
2019-01-21T19:35:07.920Z,101229.02
2019-01-21T19:37:15.738Z,101231.62
2019-01-21T19:39:24.785Z,101226.06
2019-01-21T19:41:32.312Z,101222.20
2019-01-21T19:43:40.096Z,101222.16
2019-01-21T19:45:47.762Z,101220.08
2019-01-21T19:47:56.248Z,101221.37
2019-01-21T19:50:03.829Z,101218.62
2019-01-21T19:52:11.587Z,101220.88
2019-01-21T19:54:19.297Z,101222.55
2019-01-21T19:56:26.726Z,101219.98
2019-01-21T19:58:34.343Z,101214.28
2019-01-21T20:00:42.031Z,101222.59
2019-01-21T20:02:49.814Z,101221.30
2019-01-21T20:04:57.799Z,101220.27
2019-01-21T20:07:05.404Z,101218.98
2019-01-21T20:09:13.345Z,101216.77
2019-01-21T20:11:20.995Z,101219.27
2019-01-21T20:13:28.397Z,101218.52
2019-01-21T20:15:35.913Z,101221.99
2019-01-21T20:17:43.940Z,101213.29
2019-01-21T20:19:51.398Z,101209.41
2019-01-21T20:21:58.959Z,101211.10
2019-01-21T20:24:06.609Z,101207.63
2019-01-21T20:26:14.003Z,101194.69
2019-01-21T20:28:21.491Z,101201.11
2019-01-21T20:30:29.077Z,101206.30
2019-01-21T20:32:36.375Z,101209.67
2019-01-21T20:34:44.087Z,101203.62
2019-01-21T20:36:51.490Z,101202.44
2019-01-21T20:38:58.901Z,101206.30
2019-01-21T20:41:06.749Z,101208.84
2019-01-21T20:43:14.667Z,101210.17
2019-01-21T20:45:22.386Z,101205.80
2019-01-21T20:47:30.029Z,101210.86
2019-01-21T20:49:37.576Z,101204.84
2019-01-21T20:51:44.981Z,101202.72
2019-01-21T20:53:52.456Z,101201.86
2019-01-21T20:56:00.369Z,101204.12
2019-01-21T20:58:08.480Z,101204.41
2019-01-21T21:00:21.955Z,101205.77
2019-01-21T21:02:29.722Z,101201.07
2019-01-21T21:04:37.039Z,101201.03
2019-01-21T21:06:44.000Z,101200.74
2019-01-21T21:08:50.752Z,101200.71
2019-01-21T21:10:57.768Z,101198.52
2019-01-21T21:13:04.823Z,101205.34
2019-01-21T21:15:19.189Z,101205.63
2019-01-21T21:17:26.326Z,101200.53
2019-01-21T21:19:33.962Z,101196.59
2019-01-21T21:21:40.863Z,101204.30
2019-01-21T21:23:47.783Z,101203.87
2019-01-21T21:25:55.114Z,101202.14
2019-01-21T21:28:02.423Z,101198.24
2019-01-21T21:30:19.800Z,101203.33
2019-01-21T21:32:26.917Z,101201.75
2019-01-21T21:34:34.163Z,101192.30
2019-01-21T21:36:42.800Z,101200.47
2019-01-21T21:38:50.042Z,101188.03
2019-01-21T21:40:56.827Z,101204.98
2019-01-21T21:43:04.581Z,101202.13
2019-01-21T21:45:13.004Z,101202.09
2019-01-21T21:47:20.339Z,101197.25
2019-01-21T21:49:27.379Z,101190.77
2019-01-21T21:51:34.293Z,101194.24
2019-01-21T21:53:41.337Z,101198.97
2019-01-21T21:55:48.370Z,101203.27
2019-01-21T21:57:55.610Z,101200.06
2019-01-21T22:00:02.700Z,101207.80
2019-01-21T22:02:09.689Z,101204.28
2019-01-21T22:04:16.499Z,101203.77
2019-01-21T22:06:23.544Z,101202.13
2019-01-21T22:08:30.384Z,101204.23
2019-01-21T22:10:37.247Z,101192.13
2019-01-21T22:12:44.325Z,101199.47
2019-01-21T22:14:51.290Z,101198.95
2019-01-21T22:16:58.604Z,101194.97
2019-01-21T22:19:05.449Z,101198.76
2019-01-21T22:21:13.376Z,101194.62
2019-01-21T22:23:21.467Z,101203.64
2019-01-21T22:25:28.699Z,101196.30
2019-01-21T22:27:35.989Z,101204.11
2019-01-21T22:29:43.013Z,101200.20
2019-01-21T22:31:50.419Z,101195.53
2019-01-21T22:33:57.920Z,101189.90
2019-01-21T22:36:05.405Z,101192.52
2019-01-21T22:38:12.895Z,101180.09
2019-01-21T22:40:22.524Z,101175.88
2019-01-21T22:42:30.014Z,101182.25
2019-01-21T22:44:37.441Z,101172.80
2019-01-21T22:46:44.990Z,101176.46
2019-01-21T22:48:52.318Z,101168.34
2019-01-21T22:51:00.383Z,101165.77
2019-01-21T22:53:07.964Z,101177.01
2019-01-21T22:55:16.153Z,101172.90
2019-01-21T22:57:23.703Z,101171.30
2019-01-21T22:59:30.821Z,101166.08
2019-01-21T23:01:38.234Z,101172.13
2019-01-21T23:03:45.813Z,101163.97
2019-01-21T23:05:53.241Z,101170.02
2019-01-21T23:08:01.134Z,101170.95
2019-01-21T23:10:08.966Z,101169.55
2019-01-21T23:12:16.732Z,101173.41
2019-01-21T23:14:24.399Z,101165.68
2019-01-21T23:16:31.822Z,101164.27
2019-01-21T23:18:39.537Z,101167.44
2019-01-21T23:20:46.934Z,101159.59
2019-01-21T23:22:54.789Z,101168.61
2019-01-21T23:25:02.471Z,101167.28
2019-01-21T23:27:10.565Z,101168.30
2019-01-21T23:29:18.331Z,101167.91
2019-01-21T23:31:25.847Z,101171.39
2019-01-21T23:33:33.297Z,101168.25
2019-01-21T23:35:40.830Z,101171.39
2019-01-21T23:37:48.212Z,101165.37
2019-01-21T23:39:55.540Z,101161.23
2019-01-21T23:42:03.596Z,101165.30
2019-01-21T23:44:11.062Z,101160.22
2019-01-21T23:46:18.759Z,101159.20
2019-01-21T23:48:26.308Z,101158.81
2019-01-21T23:50:33.655Z,101154.20
2019-01-21T23:52:41.159Z,101148.70
2019-01-21T23:54:48.643Z,101152.33
2019-01-21T23:56:55.958Z,101157.48
2019-01-21T23:59:03.433Z,101151.42
